Flight Track Log - Related Links

Times and Time Zones

All times are in EDT time to prevent confusion due to time zone crossing. See the FDX1703 flight status page for this flight to view local times or setup timezone preferences in your user account.

Time Position Orientation Groundspeed Altitude Reporting Facility
EDT Latitude Longitude Course Direction KTS MPH feet Rate Location/Type
Wed 03:45:55 AM 39.6820 -86.3280 224° Southwest 183 211 2,000  Level FlightAware ADS-B
Wed 03:46:24 AM 39.6630 -86.3520 224° Southwest 219 252 2,700 1,684 Climbing FlightAware ADS-B
Wed 03:46:52 AM 39.6400 -86.3790 222° Southwest 246 283 3,600 2,651 Climbing FlightAware ADS-B
Wed 03:47:07 AM 39.6230 -86.3850 195° South 241 277 4,600 3,349 Climbing FlightAware ADS-B
Wed 03:47:35 AM 39.5920 -86.3830 177° South 251 289 6,000 3,125 Climbing FlightAware ADS-B
Wed 03:47:55 AM 39.5670 -86.3810 176° South 252 290 7,100 3,150 Climbing FlightAware ADS-B
Wed 03:48:15 AM 39.5440 -86.3790 176° South 257 296 8,100 2,824 Climbing FlightAware ADS-B
Wed 03:48:46 AM 39.5070 -86.3750 175° South 262 302 9,500 2,057 Climbing FlightAware ADS-B
Wed 03:49:25 AM 39.4560 -86.3670 173° South 304 350 10,500 1,407 Climbing FlightAware ADS-B
Wed 03:50:07 AM 39.3920 -86.3570 173° South 349 402 11,400 1,643 Climbing FlightAware ADS-B
Wed 03:50:49 AM 39.3230 -86.3460 173° South 366 421 12,800 2,143 Climbing FlightAware ADS-B
Wed 03:51:31 AM 39.2500 -86.3330 172° South 376 433 14,400 2,302 Climbing FlightAware ADS-B
Wed 03:52:15 AM 39.1740 -86.3200 172° South 385 443 16,100 2,175 Climbing FlightAware ADS-B
Wed 03:52:51 AM 39.1090 -86.3080 172° South 393 452 17,300 2,000 Climbing FlightAware ADS-B
Wed 03:53:39 AM 39.0230 -86.2930 172° South 399 459 18,900 1,857 Climbing FlightAware ADS-B
Wed 03:54:15 AM 38.9560 -86.2700 165° South 410 472 19,900 1,776 Climbing FlightAware ADS-B
Wed 03:55:17 AM 38.8430 -86.2290 164° South 418 481 21,800 1,732 Climbing FlightAware ADS-B
Wed 03:55:52 AM 38.7770 -86.2040 164° South 424 488 22,700 1,792 Climbing FlightAware ADS-B
Wed 03:56:34 AM 38.6980 -86.1750 164° South 422 486 24,100 1,714 Climbing FlightAware ADS-B
Wed 03:57:16 AM 38.6170 -86.1440 163° South 428 493 25,100 1,500 Climbing FlightAware ADS-B
Wed 03:57:50 AM 38.5540 -86.1210 164° South 430 495 26,000 1,378 Climbing FlightAware ADS-B
Wed 03:58:30 AM 38.4750 -86.0920 164° South 436 502 26,800 1,537 Climbing FlightAware ADS-B
Wed 03:59:12 AM 38.3950 -86.0630 164° South 431 496 28,100 1,650 Climbing FlightAware ADS-B
Wed 03:59:50 AM 38.3210 -86.0360 164° South 430 495 29,000 1,568 Climbing FlightAware ADS-B
Wed 04:00:40 AM 38.2240 -86.0010 164° South 425 489 30,400 1,826 Climbing FlightAware ADS-B
Wed 04:01:22 AM 38.1480 -85.9730 164° South 414 476 31,800 1,630 Climbing FlightAware ADS-B
Wed 04:02:01 AM 38.0760 -85.9470 164° South 413 475 32,600 1,200 Climbing FlightAware ADS-B
Wed 04:02:37 AM 38.0090 -85.9230 164° South 412 474 33,300 1,105 Climbing FlightAware ADS-B
Wed 04:03:17 AM 37.9360 -85.8960 164° South 411 473 34,000 988 Climbing FlightAware ADS-B
Wed 04:04:02 AM 37.8550 -85.8680 165° South 413 475 34,700 1,169 Climbing FlightAware ADS-B
Wed 04:04:34 AM 37.7940 -85.8450 163° South 405 466 35,500 1,000 Climbing FlightAware ADS-B
Wed 04:05:20 AM 37.7140 -85.8170 165° South 397 457 36,000 492 Climbing FlightAware ADS-B
Wed 04:05:35 AM 37.6854 -85.8067 164° South 398 458 36,000  Level FlightAware ADS-B
Wed 04:06:22 AM 37.6005 -85.7765 164° South 398 458 36,000  Level FlightAware ADS-B
Wed 04:06:53 AM 37.5452 -85.7568 164° South 401 461 36,000  Level FlightAware ADS-B
Wed 04:07:25 AM 37.4890 -85.7365 164° South 400 460 36,000  Level FlightAware ADS-B
Wed 04:08:35 AM 37.3649 -85.6923 164° South 400 460 36,000  Level FlightAware ADS-B
Wed 04:09:09 AM 37.3034 -85.6708 164° South 402 463 36,000  Level FlightAware ADS-B
Wed 04:09:40 AM 37.2471 -85.6511 164° South 405 466 36,000  Level FlightAware ADS-B
Wed 04:10:11 AM 37.1924 -85.6316 164° South 406 467 36,000  Level FlightAware ADS-B
Wed 04:10:41 AM 37.1370 -85.6125 165° South 407 468 36,000  Level FlightAware ADS-B
Wed 04:11:11 AM 37.0823 -85.5934 164° South 407 468 36,000  Level FlightAware ADS-B
Wed 04:11:43 AM 37.0250 -85.5728 164° South 406 467 36,000  Level FlightAware ADS-B
Wed 04:12:28 AM 36.9433 -85.5440 164° South 406 467 36,000  Level FlightAware ADS-B
Wed 04:12:59 AM 36.8876 -85.5243 164° South 407 468 36,000  Level FlightAware ADS-B
Wed 04:13:30 AM 36.8300 -85.5044 165° South 408 470 36,000  Level FlightAware ADS-B
Wed 04:14:04 AM 36.7679 -85.4829 164° South 409 471 36,000  Level FlightAware ADS-B
Wed 04:14:34 AM 36.7129 -85.4637 164° South 410 472 36,000  Level FlightAware ADS-B
Wed 04:15:05 AM 36.6569 -85.4440 164° South 410 472 36,000  Level FlightAware ADS-B
Wed 04:15:35 AM 36.6012 -85.4250 165° South 410 472 36,000 98 Level FlightAware ADS-B
Wed 04:16:06 AM 36.5458 -85.4054 164° South 411 473 36,100 91 Climbing FlightAware ADS-B
Wed 04:16:41 AM 36.4814 -85.3833 165° South 412 474 36,100 -78 Level FlightAware ADS-B
Wed 04:17:23 AM 36.4030 -85.3566 165° South 411 473 36,000 -80 Descending FlightAware ADS-B
Wed 04:17:56 AM 36.3435 -85.3356 164° South 411 473 36,000  Level FlightAware ADS-B
Wed 04:18:27 AM 36.2864 -85.3160 165° South 411 473 36,000  Level FlightAware ADS-B
Wed 04:18:57 AM 36.2307 -85.2971 165° South 411 473 36,000  Level FlightAware ADS-B
Wed 04:19:28 AM 36.1738 -85.2776 165° South 410 472 36,000  Level FlightAware ADS-B
Wed 04:19:59 AM 36.1185 -85.2581 164° South 410 472 36,000  Level FlightAware ADS-B
Wed 04:20:39 AM 36.0438 -85.2329 165° South 410 472 36,000  Level FlightAware ADS-B
Wed 04:21:10 AM 35.9874 -85.2136 165° South 411 473 36,000  Level FlightAware ADS-B
Wed 04:21:40 AM 35.9323 -85.1948 165° South 411 473 36,000  Level FlightAware ADS-B
Wed 04:22:11 AM 35.8758 -85.1755 165° South 410 472 36,000  Level FlightAware ADS-B
Wed 04:22:41 AM 35.8201 -85.1569 165° South 411 473 36,000  Level FlightAware ADS-B
Wed 04:23:12 AM 35.7639 -85.1376 164° South 410 472 36,000  Level FlightAware ADS-B
Wed 04:23:42 AM 35.7086 -85.1190 165° South 412 474 36,000  Level FlightAware ADS-B
Wed 04:24:12 AM 35.6530 -85.1006 165° South 414 476 36,000  Level FlightAware ADS-B
Wed 04:24:47 AM 35.5881 -85.0786 165° South 415 478 36,000  Level FlightAware ADS-B
Wed 04:25:19 AM 35.5286 -85.0584 165° South 416 479 36,000  Level FlightAware ADS-B
Wed 04:25:50 AM 35.4727 -85.0396 165° South 416 479 36,000  Level FlightAware ADS-B
Wed 04:26:20 AM 35.4169 -85.0208 165° South 415 478 36,000  Level FlightAware ADS-B
Wed 04:26:50 AM 35.3603 -85.0014 164° South 416 479 36,000  Level FlightAware ADS-B
Wed 04:27:20 AM 35.3042 -84.9825 165° South 416 479 36,000  Level FlightAware ADS-B
Wed 04:27:50 AM 35.2481 -84.9638 165° South 418 481 36,000  Level FlightAware ADS-B
Wed 04:28:21 AM 35.1913 -84.9444 164° South 419 482 36,000  Level FlightAware ADS-B
Wed 04:28:51 AM 35.1343 -84.9258 165° South 419 482 36,000  Level FlightAware ADS-B
Wed 04:29:22 AM 35.0771 -84.9064 164° South 419 482 36,000 -269 Level FlightAware ADS-B
Wed 04:29:58 AM 35.0098 -84.8840 165° South 414 476 35,700 -1,273 Descending FlightAware ADS-B
Wed 04:30:28 AM 34.9542 -84.8657 165° South 412 474 34,600 -2,842 Descending FlightAware ADS-B
Wed 04:31:14 AM 34.8689 -84.8373 165° South 419 482 32,100 -3,395 Descending FlightAware ADS-B
Wed 04:31:44 AM 34.8116 -84.8187 165° South 430 495 30,300 -3,738 Descending FlightAware ADS-B
Wed 04:32:15 AM 34.7521 -84.7990 165° South 437 503 28,300 -3,639 Descending FlightAware ADS-B
Wed 04:32:45 AM 34.6929 -84.7794 165° South 443 510 26,600 -3,200 Descending FlightAware ADS-B
Wed 04:33:15 AM 34.6335 -84.7597 165° South 442 509 25,100 -3,100 Descending FlightAware ADS-B
Wed 04:33:45 AM 34.5733 -84.7403 165° South 435 501 23,500 -3,049 Descending FlightAware ADS-B
Wed 04:34:16 AM 34.5147 -84.7222 166° South 418 481 22,000 -3,094 Descending FlightAware ADS-B
Wed 04:34:49 AM 34.4526 -84.7026 165° South 412 474 20,200 -3,250 Descending FlightAware ADS-B
Wed 04:35:28 AM 34.3835 -84.6786 164° South 402 463 18,100 -3,217 Descending FlightAware ADS-B
Wed 04:35:58 AM 34.3301 -84.6606 164° South 394 453 16,500 -2,952 Descending FlightAware ADS-B
Wed 04:36:31 AM 34.2738 -84.6423 165° South 381 438 15,000 -1,477 Descending FlightAware ADS-B
Wed 04:37:03 AM 34.2181 -84.6297 169° South 379 436 14,900 -78 Descending FlightAware ADS-B
Wed 04:37:48 AM 34.1383 -84.6383 185° South 379 436 14,900 -484 Level FlightAware ADS-B
Wed 04:38:05 AM 34.1099 -84.6421 186° South 371 427 14,400 -3,077 Descending FlightAware ADS-B
Wed 04:39:06 AM 34.0090 -84.6550 186° South 331 381 10,900 -2,467 Descending FlightAware ADS-B
Wed 04:39:52 AM 33.9440 -84.6640 187° South 280 322 10,000 -1,333 Descending FlightAware ADS-B
Wed 04:40:18 AM 33.9130 -84.6690 188° South 265 305 9,300 -2,111 Descending FlightAware ADS-B
Wed 04:40:46 AM 33.8790 -84.6740 187° South 264 304 8,100 -2,421 Descending FlightAware ADS-B
Wed 04:41:15 AM 33.8450 -84.6800 188° South 264 304 7,000 -2,400 Descending FlightAware ADS-B
Wed 04:41:26 AM 33.8290 -84.6820 186° South 262 302 6,500 -2,270 Descending FlightAware ADS-B
Wed 04:41:52 AM 33.7990 -84.6870 188° South 256 295 5,600 -2,077 Descending FlightAware ADS-B
Wed 04:42:18 AM 33.7680 -84.6910 186° South 255 293 4,700 -1,607 Descending FlightAware ADS-B
Wed 04:42:48 AM 33.7340 -84.6960 187° South 233 268 4,100 -889 Descending FlightAware ADS-B
Wed 04:43:12 AM 33.7100 -84.6990 186° South 213 245 3,900 -300 Descending FlightAware ADS-B
Wed 04:43:28 AM 33.6940 -84.7010 186° South 207 238 3,900  Level FlightAware ADS-B
Wed 04:43:47 AM 33.6780 -84.7020 183° South 186 214 3,900  Level FlightAware ADS-B
Wed 04:44:16 AM 33.6600 -84.6840 140° Southeast 188 216 3,900  Level FlightAware ADS-B
Wed 04:44:44 AM 33.6510 -84.6570 112° Southeast 191 220 3,900  Level FlightAware ADS-B
Wed 04:45:10 AM 33.6490 -84.6300 95° East 182 209 3,900 -462 Level FlightAware ADS-B
Wed 04:45:36 AM 33.6490 -84.6040 90° East 185 213 3,500 -889 Descending FlightAware ADS-B
Wed 04:46:04 AM 33.6490 -84.5750 90° East 179 206 3,100 -824 Descending FlightAware ADS-B
Wed 04:46:27 AM 33.6490 -84.5570 90° East 177 204 2,800 -889 Descending FlightAware ADS-B
Wed 04:46:58 AM 33.6490 -84.5250 90° East 152 175 2,300 -885 Descending FlightAware ADS-B
Wed 04:47:28 AM 33.6490 -84.5000 90° East 145 167 1,900 -750 Descending FlightAware ADS-B
Wed 04:47:54 AM 33.6490 -84.4790 90° East 142 163 1,600 -706 Descending FlightAware ADS-B
Wed 04:48:36 AM 33.6500 -84.4470 88° East 144 166 1,100 -714 Descending FlightAware ADS-B
Wed 04:49:16 AM 33.6500 -84.4200 90° East 48 55 -1,650 Descending FlightAware ADS-B
Wed 04:50:00 AM 33.6510 -84.4160 73° East 15 17  Level FlightAware ADS-B
Wed 04:50:15 AM 33.6510 -84.4150 90° East 15 17  Level FlightAware ADS-B
Wed 04:50:23 AM 33.6520 -84.4150 360° North 15 17  Level FlightAware ADS-B
Wed 04:50:44 AM 33.6530 -84.4150 360° North 15 17  Level FlightAware ADS-B
Wed 04:51:31 AM 33.6540 -84.4170 301° West 24 28  Level FlightAware ADS-B
Wed 04:52:00 AM 33.6560 -84.4190 320° Northwest 25 29  Level FlightAware ADS-B
Wed 04:56:00 AM 33.6333 -84.4167 106° East  Level FlightAware Approximate
Wed 04:57:00 AM 33.6367 -84.4279 106° East  Level Estimated

Login

Don't have an account? Register now (free) for customized features, flight alerts, and more!